sensor_id;sensor_type;location;lat;lon;timestamp;P1;durP1;ratioP1;P2;durP2;ratioP2
62616;SDS011;62539;51.190;6.808;2022-11-18T00:00:48;1.00;;;0.82;;
62616;SDS011;62539;51.190;6.808;2022-11-18T00:03:14;1.90;;;0.98;;
62616;SDS011;62539;51.190;6.808;2022-11-18T00:05:41;1.10;;;0.88;;
62616;SDS011;62539;51.190;6.808;2022-11-18T00:08:07;1.20;;;0.98;;
62616;SDS011;62539;51.190;6.808;2022-11-18T00:10:32;1.13;;;0.82;;
62616;SDS011;62539;51.190;6.808;2022-11-18T00:13:03;2.28;;;0.90;;
62616;SDS011;62539;51.190;6.808;2022-11-18T00:15:58;1.65;;;1.00;;
62616;SDS011;62539;51.190;6.808;2022-11-18T00:18:29;1.27;;;1.08;;
62616;SDS011;62539;51.190;6.808;2022-11-18T00:20:59;3.00;;;1.10;;
62616;SDS011;62539;51.190;6.808;2022-11-18T00:23:26;1.77;;;1.00;;
62616;SDS011;62539;51.190;6.808;2022-11-18T00:25:51;1.13;;;0.77;;
62616;SDS011;62539;51.190;6.808;2022-11-18T00:28:16;1.23;;;0.82;;
62616;SDS011;62539;51.190;6.808;2022-11-18T00:30:42;1.52;;;0.82;;
62616;SDS011;62539;51.190;6.808;2022-11-18T00:33:07;1.65;;;0.70;;
62616;SDS011;62539;51.190;6.808;2022-11-18T00:35:33;1.52;;;1.10;;
62616;SDS011;62539;51.190;6.808;2022-11-18T00:37:58;1.38;;;0.82;;
62616;SDS011;62539;51.190;6.808;2022-11-18T00:40:23;1.45;;;0.95;;
62616;SDS011;62539;51.190;6.808;2022-11-18T00:42:49;2.30;;;1.08;;
62616;SDS011;62539;51.190;6.808;2022-11-18T00:45:15;1.48;;;1.02;;
62616;SDS011;62539;51.190;6.808;2022-11-18T00:47:42;1.95;;;0.93;;
62616;SDS011;62539;51.190;6.808;2022-11-18T00:50:07;2.13;;;1.00;;
62616;SDS011;62539;51.190;6.808;2022-11-18T00:52:33;2.58;;;0.98;;
62616;SDS011;62539;51.190;6.808;2022-11-18T00:54:58;1.00;;;0.80;;
62616;SDS011;62539;51.190;6.808;2022-11-18T00:57:24;1.10;;;1.00;;
62616;SDS011;62539;51.190;6.808;2022-11-18T00:59:49;2.20;;;1.02;;
62616;SDS011;62539;51.190;6.808;2022-11-18T01:02:15;1.55;;;0.98;;
62616;SDS011;62539;51.190;6.808;2022-11-18T01:04:40;1.17;;;0.88;;
62616;SDS011;62539;51.190;6.808;2022-11-18T01:07:06;1.15;;;0.80;;
62616;SDS011;62539;51.190;6.808;2022-11-18T01:09:31;1.15;;;1.00;;
62616;SDS011;62539;51.190;6.808;2022-11-18T01:11:57;1.67;;;0.95;;
62616;SDS011;62539;51.190;6.808;2022-11-18T01:14:41;1.40;;;0.90;;
62616;SDS011;62539;51.190;6.808;2022-11-18T01:17:06;1.83;;;0.95;;
62616;SDS011;62539;51.190;6.808;2022-11-18T01:19:33;1.00;;;0.77;;
62616;SDS011;62539;51.190;6.808;2022-11-18T01:21:59;1.05;;;0.70;;
62616;SDS011;62539;51.190;6.808;2022-11-18T01:24:30;1.40;;;0.82;;
62616;SDS011;62539;51.190;6.808;2022-11-18T01:29:24;1.20;;;0.95;;
62616;SDS011;62539;51.190;6.808;2022-11-18T01:31:50;0.90;;;0.80;;
62616;SDS011;62539;51.190;6.808;2022-11-18T01:34:15;1.00;;;0.77;;
62616;SDS011;62539;51.190;6.808;2022-11-18T01:36:40;1.67;;;1.00;;
62616;SDS011;62539;51.190;6.808;2022-11-18T01:39:06;1.48;;;0.90;;
62616;SDS011;62539;51.190;6.808;2022-11-18T01:41:31;1.60;;;1.00;;
62616;SDS011;62539;51.190;6.808;2022-11-18T01:43:58;0.65;;;0.60;;
62616;SDS011;62539;51.190;6.808;2022-11-18T01:46:30;0.80;;;0.70;;
62616;SDS011;62539;51.190;6.808;2022-11-18T01:49:11;2.75;;;0.90;;
62616;SDS011;62539;51.190;6.808;2022-11-18T01:51:52;1.02;;;0.80;;
62616;SDS011;62539;51.190;6.808;2022-11-18T01:54:23;1.27;;;0.98;;
62616;SDS011;62539;51.190;6.808;2022-11-18T01:56:58;1.45;;;0.90;;
62616;SDS011;62539;51.190;6.808;2022-11-18T01:59:32;2.95;;;0.88;;
62616;SDS011;62539;51.190;6.808;2022-11-18T02:02:04;0.80;;;0.80;;
62616;SDS011;62539;51.190;6.808;2022-11-18T02:04:35;1.17;;;0.85;;
62616;SDS011;62539;51.190;6.808;2022-11-18T02:07:04;2.20;;;0.75;;
62616;SDS011;62539;51.190;6.808;2022-11-18T02:09:32;1.42;;;0.80;;
62616;SDS011;62539;51.190;6.808;2022-11-18T02:12:00;1.08;;;0.80;;
62616;SDS011;62539;51.190;6.808;2022-11-18T02:14:33;1.13;;;0.80;;
62616;SDS011;62539;51.190;6.808;2022-11-18T02:17:13;1.60;;;0.70;;
62616;SDS011;62539;51.190;6.808;2022-11-18T02:25:04;1.55;;;0.98;;
62616;SDS011;62539;51.190;6.808;2022-11-18T02:30:27;1.43;;;0.80;;
62616;SDS011;62539;51.190;6.808;2022-11-18T02:33:09;1.35;;;0.80;;
62616;SDS011;62539;51.190;6.808;2022-11-18T02:35:45;1.60;;;0.85;;
62616;SDS011;62539;51.190;6.808;2022-11-18T02:38:25;1.33;;;0.80;;
62616;SDS011;62539;51.190;6.808;2022-11-18T02:41:07;1.38;;;0.77;;
62616;SDS011;62539;51.190;6.808;2022-11-18T02:43:41;0.75;;;0.70;;
62616;SDS011;62539;51.190;6.808;2022-11-18T02:46:14;0.98;;;0.80;;
62616;SDS011;62539;51.190;6.808;2022-11-18T02:48:49;1.08;;;0.82;;
62616;SDS011;62539;51.190;6.808;2022-11-18T02:51:18;1.30;;;0.80;;
62616;SDS011;62539;51.190;6.808;2022-11-18T02:53:50;1.33;;;0.77;;
62616;SDS011;62539;51.190;6.808;2022-11-18T02:56:20;1.02;;;0.88;;
62616;SDS011;62539;51.190;6.808;2022-11-18T02:58:46;1.73;;;0.88;;
62616;SDS011;62539;51.190;6.808;2022-11-18T03:01:31;1.15;;;0.80;;
62616;SDS011;62539;51.190;6.808;2022-11-18T03:03:59;1.13;;;0.80;;
62616;SDS011;62539;51.190;6.808;2022-11-18T03:06:33;0.93;;;0.70;;
62616;SDS011;62539;51.190;6.808;2022-11-18T03:20:32;1.67;;;0.80;;
62616;SDS011;62539;51.190;6.808;2022-11-18T03:28:41;0.68;;;0.63;;
62616;SDS011;62539;51.190;6.808;2022-11-18T03:31:15;0.98;;;0.70;;
62616;SDS011;62539;51.190;6.808;2022-11-18T03:33:53;0.95;;;0.70;;
62616;SDS011;62539;51.190;6.808;2022-11-18T03:36:27;0.80;;;0.77;;
62616;SDS011;62539;51.190;6.808;2022-11-18T03:39:01;0.88;;;0.70;;
62616;SDS011;62539;51.190;6.808;2022-11-18T03:41:31;1.20;;;0.80;;
62616;SDS011;62539;51.190;6.808;2022-11-18T03:44:06;1.10;;;0.77;;
62616;SDS011;62539;51.190;6.808;2022-11-18T03:47:21;0.73;;;0.70;;
62616;SDS011;62539;51.190;6.808;2022-11-18T03:49:35;1.08;;;0.80;;
62616;SDS011;62539;51.190;6.808;2022-11-18T03:52:14;1.10;;;0.73;;
62616;SDS011;62539;51.190;6.808;2022-11-18T03:54:47;0.98;;;0.82;;
62616;SDS011;62539;51.190;6.808;2022-11-18T03:57:19;0.70;;;0.70;;
62616;SDS011;62539;51.190;6.808;2022-11-18T03:59:58;0.50;;;0.50;;
62616;SDS011;62539;51.190;6.808;2022-11-18T04:02:31;1.27;;;0.80;;
62616;SDS011;62539;51.190;6.808;2022-11-18T04:04:59;1.00;;;0.90;;
62616;SDS011;62539;51.190;6.808;2022-11-18T04:07:39;1.48;;;0.80;;
62616;SDS011;62539;51.190;6.808;2022-11-18T04:10:34;1.30;;;0.90;;
62616;SDS011;62539;51.190;6.808;2022-11-18T04:13:23;0.70;;;0.70;;
62616;SDS011;62539;51.190;6.808;2022-11-18T04:15:54;0.93;;;0.80;;
62616;SDS011;62539;51.190;6.808;2022-11-18T04:18:20;0.98;;;0.80;;
62616;SDS011;62539;51.190;6.808;2022-11-18T04:20:45;1.77;;;0.70;;
62616;SDS011;62539;51.190;6.808;2022-11-18T04:23:11;0.70;;;0.70;;
62616;SDS011;62539;51.190;6.808;2022-11-18T04:25:36;1.48;;;0.80;;
62616;SDS011;62539;51.190;6.808;2022-11-18T04:28:02;1.20;;;0.90;;
62616;SDS011;62539;51.190;6.808;2022-11-18T04:30:28;1.20;;;0.98;;
62616;SDS011;62539;51.190;6.808;2022-11-18T04:32:54;0.77;;;0.50;;
62616;SDS011;62539;51.190;6.808;2022-11-18T04:35:19;0.75;;;0.75;;
62616;SDS011;62539;51.190;6.808;2022-11-18T04:37:44;0.80;;;0.70;;
62616;SDS011;62539;51.190;6.808;2022-11-18T04:40:10;0.98;;;0.60;;
62616;SDS011;62539;51.190;6.808;2022-11-18T04:42:36;1.83;;;0.88;;
62616;SDS011;62539;51.190;6.808;2022-11-18T04:45:02;0.98;;;0.70;;
62616;SDS011;62539;51.190;6.808;2022-11-18T04:47:28;1.25;;;0.80;;
62616;SDS011;62539;51.190;6.808;2022-11-18T04:49:54;0.80;;;0.80;;
62616;SDS011;62539;51.190;6.808;2022-11-18T04:52:19;1.92;;;0.80;;
62616;SDS011;62539;51.190;6.808;2022-11-18T04:54:44;1.23;;;0.70;;
62616;SDS011;62539;51.190;6.808;2022-11-18T04:57:10;1.02;;;0.70;;
62616;SDS011;62539;51.190;6.808;2022-11-18T04:59:36;1.70;;;0.70;;
62616;SDS011;62539;51.190;6.808;2022-11-18T05:02:02;2.33;;;0.73;;
62616;SDS011;62539;51.190;6.808;2022-11-18T05:04:28;1.05;;;0.70;;
62616;SDS011;62539;51.190;6.808;2022-11-18T05:06:56;0.98;;;0.70;;
62616;SDS011;62539;51.190;6.808;2022-11-18T05:09:23;0.70;;;0.60;;
62616;SDS011;62539;51.190;6.808;2022-11-18T05:11:50;1.88;;;0.70;;
62616;SDS011;62539;51.190;6.808;2022-11-18T05:14:34;0.50;;;0.50;;
62616;SDS011;62539;51.190;6.808;2022-11-18T05:17:00;1.08;;;0.70;;
62616;SDS011;62539;51.190;6.808;2022-11-18T05:19:28;1.33;;;0.70;;
62616;SDS011;62539;51.190;6.808;2022-11-18T05:21:54;1.40;;;0.60;;
62616;SDS011;62539;51.190;6.808;2022-11-18T05:24:19;0.70;;;0.60;;
62616;SDS011;62539;51.190;6.808;2022-11-18T05:26:47;1.05;;;0.63;;
62616;SDS011;62539;51.190;6.808;2022-11-18T05:29:14;1.40;;;0.80;;
62616;SDS011;62539;51.190;6.808;2022-11-18T05:31:41;1.02;;;0.70;;
62616;SDS011;62539;51.190;6.808;2022-11-18T05:34:06;0.63;;;0.60;;
62616;SDS011;62539;51.190;6.808;2022-11-18T05:36:32;3.80;;;0.73;;
62616;SDS011;62539;51.190;6.808;2022-11-18T05:38:57;0.90;;;0.73;;
62616;SDS011;62539;51.190;6.808;2022-11-18T05:41:24;1.20;;;0.70;;
62616;SDS011;62539;51.190;6.808;2022-11-18T05:44:08;1.90;;;0.75;;
62616;SDS011;62539;51.190;6.808;2022-11-18T05:46:33;0.60;;;0.60;;
62616;SDS011;62539;51.190;6.808;2022-11-18T05:48:58;1.90;;;0.60;;
62616;SDS011;62539;51.190;6.808;2022-11-18T05:51:24;1.60;;;0.80;;
62616;SDS011;62539;51.190;6.808;2022-11-18T05:53:50;1.35;;;0.73;;
62616;SDS011;62539;51.190;6.808;2022-11-18T05:56:24;1.30;;;0.50;;
62616;SDS011;62539;51.190;6.808;2022-11-18T05:58:54;0.73;;;0.68;;
62616;SDS011;62539;51.190;6.808;2022-11-18T06:01:20;1.30;;;0.70;;
62616;SDS011;62539;51.190;6.808;2022-11-18T06:03:52;0.88;;;0.65;;
62616;SDS011;62539;51.190;6.808;2022-11-18T06:06:18;1.25;;;0.63;;
62616;SDS011;62539;51.190;6.808;2022-11-18T06:08:48;2.38;;;0.70;;
62616;SDS011;62539;51.190;6.808;2022-11-18T06:11:24;2.47;;;0.90;;
62616;SDS011;62539;51.190;6.808;2022-11-18T06:14:11;0.82;;;0.60;;
62616;SDS011;62539;51.190;6.808;2022-11-18T06:16:57;1.85;;;0.60;;
62616;SDS011;62539;51.190;6.808;2022-11-18T06:19:28;4.35;;;0.98;;
62616;SDS011;62539;51.190;6.808;2022-11-18T06:21:55;4.45;;;0.90;;
62616;SDS011;62539;51.190;6.808;2022-11-18T06:24:23;4.40;;;0.80;;
62616;SDS011;62539;51.190;6.808;2022-11-18T06:26:48;8.68;;;0.90;;
62616;SDS011;62539;51.190;6.808;2022-11-18T06:29:15;1.55;;;0.95;;
62616;SDS011;62539;51.190;6.808;2022-11-18T06:31:44;7.28;;;0.93;;
62616;SDS011;62539;51.190;6.808;2022-11-18T06:34:09;2.88;;;0.80;;
62616;SDS011;62539;51.190;6.808;2022-11-18T06:36:35;2.38;;;0.80;;
62616;SDS011;62539;51.190;6.808;2022-11-18T06:39:03;1.85;;;0.90;;
62616;SDS011;62539;51.190;6.808;2022-11-18T06:41:30;2.10;;;0.93;;
62616;SDS011;62539;51.190;6.808;2022-11-18T06:43:56;6.38;;;1.15;;
62616;SDS011;62539;51.190;6.808;2022-11-18T06:46:22;7.97;;;0.90;;
62616;SDS011;62539;51.190;6.808;2022-11-18T06:49:06;3.47;;;0.75;;
62616;SDS011;62539;51.190;6.808;2022-11-18T06:51:31;2.05;;;0.75;;
62616;SDS011;62539;51.190;6.808;2022-11-18T06:53:57;7.55;;;0.98;;
62616;SDS011;62539;51.190;6.808;2022-11-18T06:56:23;4.28;;;0.90;;
62616;SDS011;62539;51.190;6.808;2022-11-18T06:58:55;3.25;;;0.80;;
62616;SDS011;62539;51.190;6.808;2022-11-18T07:01:26;3.90;;;0.82;;
62616;SDS011;62539;51.190;6.808;2022-11-18T07:03:56;3.22;;;0.60;;
62616;SDS011;62539;51.190;6.808;2022-11-18T07:06:24;1.52;;;0.75;;
62616;SDS011;62539;51.190;6.808;2022-11-18T07:08:53;4.07;;;0.98;;
62616;SDS011;62539;51.190;6.808;2022-11-18T07:11:20;2.58;;;0.80;;
62616;SDS011;62539;51.190;6.808;2022-11-18T07:16:17;1.55;;;0.75;;
62616;SDS011;62539;51.190;6.808;2022-11-18T07:18:48;1.63;;;0.82;;
62616;SDS011;62539;51.190;6.808;2022-11-18T07:21:16;3.25;;;0.90;;
62616;SDS011;62539;51.190;6.808;2022-11-18T07:23:48;1.55;;;0.80;;
62616;SDS011;62539;51.190;6.808;2022-11-18T07:26:14;6.43;;;0.88;;
62616;SDS011;62539;51.190;6.808;2022-11-18T07:28:40;6.28;;;0.88;;
62616;SDS011;62539;51.190;6.808;2022-11-18T07:31:10;1.23;;;0.73;;
62616;SDS011;62539;51.190;6.808;2022-11-18T07:33:39;1.73;;;0.85;;
62616;SDS011;62539;51.190;6.808;2022-11-18T07:36:10;1.80;;;0.80;;
62616;SDS011;62539;51.190;6.808;2022-11-18T07:38:42;1.63;;;0.90;;
62616;SDS011;62539;51.190;6.808;2022-11-18T07:41:10;2.85;;;0.77;;
62616;SDS011;62539;51.190;6.808;2022-11-18T07:43:40;5.88;;;0.90;;
62616;SDS011;62539;51.190;6.808;2022-11-18T07:46:10;0.70;;;0.70;;
62616;SDS011;62539;51.190;6.808;2022-11-18T07:48:48;6.57;;;0.73;;
62616;SDS011;62539;51.190;6.808;2022-11-18T07:51:17;1.60;;;1.50;;
62616;SDS011;62539;51.190;6.808;2022-11-18T07:53:45;3.88;;;0.80;;
62616;SDS011;62539;51.190;6.808;2022-11-18T07:56:11;2.33;;;0.90;;
62616;SDS011;62539;51.190;6.808;2022-11-18T07:58:38;1.67;;;0.70;;
62616;SDS011;62539;51.190;6.808;2022-11-18T08:01:06;3.50;;;0.80;;
62616;SDS011;62539;51.190;6.808;2022-11-18T08:03:43;2.55;;;0.90;;
62616;SDS011;62539;51.190;6.808;2022-11-18T08:06:10;1.75;;;0.93;;
62616;SDS011;62539;51.190;6.808;2022-11-18T08:08:39;1.48;;;0.70;;
62616;SDS011;62539;51.190;6.808;2022-11-18T08:11:06;1.70;;;0.80;;
62616;SDS011;62539;51.190;6.808;2022-11-18T08:13:35;1.67;;;0.70;;
62616;SDS011;62539;51.190;6.808;2022-11-18T08:16:01;2.40;;;1.00;;
62616;SDS011;62539;51.190;6.808;2022-11-18T08:18:29;1.33;;;0.63;;
62616;SDS011;62539;51.190;6.808;2022-11-18T08:21:02;3.53;;;0.77;;
62616;SDS011;62539;51.190;6.808;2022-11-18T08:23:29;0.60;;;0.60;;
62616;SDS011;62539;51.190;6.808;2022-11-18T08:26:00;1.38;;;0.80;;
62616;SDS011;62539;51.190;6.808;2022-11-18T08:28:31;5.68;;;0.85;;
62616;SDS011;62539;51.190;6.808;2022-11-18T08:30:58;10.55;;;0.90;;
62616;SDS011;62539;51.190;6.808;2022-11-18T08:33:23;1.08;;;0.80;;
62616;SDS011;62539;51.190;6.808;2022-11-18T08:35:48;3.28;;;1.67;;
62616;SDS011;62539;51.190;6.808;2022-11-18T08:38:14;10.32;;;3.78;;
62616;SDS011;62539;51.190;6.808;2022-11-18T08:40:40;5.82;;;3.15;;
62616;SDS011;62539;51.190;6.808;2022-11-18T08:43:10;6.38;;;3.10;;
62616;SDS011;62539;51.190;6.808;2022-11-18T08:45:39;6.07;;;2.75;;
62616;SDS011;62539;51.190;6.808;2022-11-18T08:48:07;4.20;;;2.58;;
62616;SDS011;62539;51.190;6.808;2022-11-18T08:50:32;6.57;;;2.45;;
62616;SDS011;62539;51.190;6.808;2022-11-18T08:52:57;5.47;;;2.45;;
62616;SDS011;62539;51.190;6.808;2022-11-18T08:55:23;7.85;;;2.15;;
62616;SDS011;62539;51.190;6.808;2022-11-18T08:57:48;4.50;;;1.88;;
62616;SDS011;62539;51.190;6.808;2022-11-18T09:00:14;6.72;;;2.10;;
62616;SDS011;62539;51.190;6.808;2022-11-18T09:02:40;5.32;;;1.98;;
62616;SDS011;62539;51.190;6.808;2022-11-18T09:05:06;8.48;;;2.30;;
62616;SDS011;62539;51.190;6.808;2022-11-18T09:07:31;5.20;;;1.52;;
62616;SDS011;62539;51.190;6.808;2022-11-18T09:09:57;8.73;;;2.00;;
62616;SDS011;62539;51.190;6.808;2022-11-18T09:12:22;8.20;;;2.22;;
62616;SDS011;62539;51.190;6.808;2022-11-18T09:14:48;4.55;;;2.00;;
62616;SDS011;62539;51.190;6.808;2022-11-18T09:17:13;5.60;;;2.20;;
62616;SDS011;62539;51.190;6.808;2022-11-18T09:19:39;10.50;;;2.00;;
62616;SDS011;62539;51.190;6.808;2022-11-18T09:22:05;8.75;;;2.30;;
62616;SDS011;62539;51.190;6.808;2022-11-18T09:24:32;4.28;;;1.90;;
62616;SDS011;62539;51.190;6.808;2022-11-18T09:27:01;9.07;;;2.97;;
62616;SDS011;62539;51.190;6.808;2022-11-18T09:29:28;7.45;;;1.63;;
62616;SDS011;62539;51.190;6.808;2022-11-18T09:31:54;5.45;;;2.13;;
62616;SDS011;62539;51.190;6.808;2022-11-18T09:34:20;4.82;;;1.58;;
62616;SDS011;62539;51.190;6.808;2022-11-18T09:36:46;4.13;;;1.42;;
62616;SDS011;62539;51.190;6.808;2022-11-18T09:39:12;8.05;;;1.80;;
62616;SDS011;62539;51.190;6.808;2022-11-18T09:44:23;3.40;;;1.30;;
62616;SDS011;62539;51.190;6.808;2022-11-18T09:49:55;4.45;;;1.45;;
62616;SDS011;62539;51.190;6.808;2022-11-18T09:52:28;4.18;;;1.50;;
62616;SDS011;62539;51.190;6.808;2022-11-18T09:55:00;8.82;;;1.88;;
62616;SDS011;62539;51.190;6.808;2022-11-18T09:57:37;2.90;;;1.52;;
62616;SDS011;62539;51.190;6.808;2022-11-18T10:05:44;2.38;;;1.25;;
62616;SDS011;62539;51.190;6.808;2022-11-18T10:11:22;2.53;;;1.30;;
62616;SDS011;62539;51.190;6.808;2022-11-18T10:14:09;2.47;;;1.52;;
62616;SDS011;62539;51.190;6.808;2022-11-18T10:17:06;4.45;;;1.58;;
62616;SDS011;62539;51.190;6.808;2022-11-18T10:19:46;3.28;;;1.25;;
62616;SDS011;62539;51.190;6.808;2022-11-18T10:25:18;2.17;;;1.20;;
62616;SDS011;62539;51.190;6.808;2022-11-18T10:27:46;3.80;;;1.38;;
62616;SDS011;62539;51.190;6.808;2022-11-18T10:30:15;2.95;;;1.38;;
62616;SDS011;62539;51.190;6.808;2022-11-18T10:33:00;2.08;;;1.20;;
62616;SDS011;62539;51.190;6.808;2022-11-18T10:35:44;2.33;;;0.93;;
62616;SDS011;62539;51.190;6.808;2022-11-18T10:40:45;2.20;;;1.08;;
62616;SDS011;62539;51.190;6.808;2022-11-18T10:43:44;2.38;;;1.05;;
62616;SDS011;62539;51.190;6.808;2022-11-18T10:46:26;1.63;;;1.05;;
62616;SDS011;62539;51.190;6.808;2022-11-18T10:52:09;2.45;;;1.20;;
62616;SDS011;62539;51.190;6.808;2022-11-18T10:54:35;1.17;;;0.90;;
62616;SDS011;62539;51.190;6.808;2022-11-18T10:57:04;2.17;;;0.90;;
62616;SDS011;62539;51.190;6.808;2022-11-18T10:59:46;3.22;;;1.20;;
62616;SDS011;62539;51.190;6.808;2022-11-18T11:05:15;3.08;;;0.90;;
62616;SDS011;62539;51.190;6.808;2022-11-18T11:07:45;1.50;;;0.95;;
62616;SDS011;62539;51.190;6.808;2022-11-18T11:10:27;3.47;;;1.05;;
62616;SDS011;62539;51.190;6.808;2022-11-18T11:12:57;2.38;;;1.00;;
62616;SDS011;62539;51.190;6.808;2022-11-18T11:18:15;1.98;;;1.10;;
62616;SDS011;62539;51.190;6.808;2022-11-18T11:21:11;3.20;;;1.00;;
62616;SDS011;62539;51.190;6.808;2022-11-18T11:23:44;2.20;;;1.10;;
62616;SDS011;62539;51.190;6.808;2022-11-18T11:32:35;3.47;;;1.48;;
62616;SDS011;62539;51.190;6.808;2022-11-18T11:35:19;1.73;;;1.20;;
62616;SDS011;62539;51.190;6.808;2022-11-18T11:37:57;2.17;;;1.20;;
62616;SDS011;62539;51.190;6.808;2022-11-18T11:40:31;1.92;;;1.17;;
62616;SDS011;62539;51.190;6.808;2022-11-18T11:55:36;2.25;;;1.20;;
62616;SDS011;62539;51.190;6.808;2022-11-18T12:04:54;3.75;;;1.08;;
62616;SDS011;62539;51.190;6.808;2022-11-18T12:07:29;2.15;;;1.13;;
62616;SDS011;62539;51.190;6.808;2022-11-18T12:10:09;2.42;;;1.20;;
62616;SDS011;62539;51.190;6.808;2022-11-18T12:16:00;2.65;;;1.05;;
62616;SDS011;62539;51.190;6.808;2022-11-18T12:18:42;3.22;;;0.80;;
62616;SDS011;62539;51.190;6.808;2022-11-18T12:26:45;7.97;;;1.25;;
62616;SDS011;62539;51.190;6.808;2022-11-18T12:34:41;2.03;;;0.90;;
62616;SDS011;62539;51.190;6.808;2022-11-18T12:48:04;3.35;;;0.90;;
62616;SDS011;62539;51.190;6.808;2022-11-18T12:50:55;4.95;;;1.00;;
62616;SDS011;62539;51.190;6.808;2022-11-18T12:53:48;4.47;;;1.10;;
62616;SDS011;62539;51.190;6.808;2022-11-18T12:58:47;6.30;;;1.00;;
62616;SDS011;62539;51.190;6.808;2022-11-18T13:01:31;1.85;;;1.00;;
62616;SDS011;62539;51.190;6.808;2022-11-18T13:04:07;2.13;;;0.80;;
62616;SDS011;62539;51.190;6.808;2022-11-18T13:06:51;5.95;;;0.93;;
62616;SDS011;62539;51.190;6.808;2022-11-18T13:09:25;3.25;;;0.80;;
62616;SDS011;62539;51.190;6.808;2022-11-18T13:12:00;7.38;;;1.20;;
62616;SDS011;62539;51.190;6.808;2022-11-18T13:17:31;3.03;;;1.17;;
62616;SDS011;62539;51.190;6.808;2022-11-18T13:20:35;3.50;;;1.13;;
62616;SDS011;62539;51.190;6.808;2022-11-18T13:23:16;6.20;;;1.00;;
62616;SDS011;62539;51.190;6.808;2022-11-18T13:26:45;7.55;;;1.05;;
62616;SDS011;62539;51.190;6.808;2022-11-18T13:32:14;1.63;;;1.00;;
62616;SDS011;62539;51.190;6.808;2022-11-18T13:37:20;5.57;;;1.02;;
62616;SDS011;62539;51.190;6.808;2022-11-18T13:39:49;4.38;;;1.20;;
62616;SDS011;62539;51.190;6.808;2022-11-18T13:42:17;2.08;;;1.10;;
62616;SDS011;62539;51.190;6.808;2022-11-18T13:55:35;4.38;;;1.02;;
62616;SDS011;62539;51.190;6.808;2022-11-18T14:00:44;2.47;;;1.75;;
62616;SDS011;62539;51.190;6.808;2022-11-18T14:06:08;2.35;;;1.10;;
62616;SDS011;62539;51.190;6.808;2022-11-18T14:08:35;3.88;;;1.02;;
62616;SDS011;62539;51.190;6.808;2022-11-18T14:11:03;4.45;;;1.00;;
62616;SDS011;62539;51.190;6.808;2022-11-18T14:13:32;9.75;;;1.13;;
62616;SDS011;62539;51.190;6.808;2022-11-18T14:18:46;1.83;;;0.90;;
62616;SDS011;62539;51.190;6.808;2022-11-18T14:21:31;2.15;;;1.00;;
62616;SDS011;62539;51.190;6.808;2022-11-18T14:24:00;3.05;;;1.08;;
62616;SDS011;62539;51.190;6.808;2022-11-18T14:26:34;1.25;;;0.82;;
62616;SDS011;62539;51.190;6.808;2022-11-18T14:29:13;5.70;;;0.98;;
62616;SDS011;62539;51.190;6.808;2022-11-18T14:32:00;1.17;;;0.70;;
62616;SDS011;62539;51.190;6.808;2022-11-18T14:34:40;2.97;;;0.90;;
62616;SDS011;62539;51.190;6.808;2022-11-18T14:37:10;1.88;;;1.10;;
62616;SDS011;62539;51.190;6.808;2022-11-18T14:39:37;3.00;;;1.00;;
62616;SDS011;62539;51.190;6.808;2022-11-18T14:42:04;2.08;;;1.02;;
62616;SDS011;62539;51.190;6.808;2022-11-18T14:44:30;3.63;;;1.17;;
62616;SDS011;62539;51.190;6.808;2022-11-18T14:46:57;3.53;;;0.95;;
62616;SDS011;62539;51.190;6.808;2022-11-18T14:49:26;3.20;;;0.88;;
62616;SDS011;62539;51.190;6.808;2022-11-18T14:51:55;4.63;;;0.93;;
62616;SDS011;62539;51.190;6.808;2022-11-18T14:54:22;6.28;;;1.05;;
62616;SDS011;62539;51.190;6.808;2022-11-18T14:56:50;4.70;;;1.02;;
62616;SDS011;62539;51.190;6.808;2022-11-18T14:59:19;3.85;;;1.00;;
62616;SDS011;62539;51.190;6.808;2022-11-18T15:01:45;2.95;;;1.08;;
62616;SDS011;62539;51.190;6.808;2022-11-18T15:04:12;2.47;;;0.70;;
62616;SDS011;62539;51.190;6.808;2022-11-18T15:06:40;9.27;;;1.23;;
62616;SDS011;62539;51.190;6.808;2022-11-18T15:09:06;1.85;;;0.90;;
62616;SDS011;62539;51.190;6.808;2022-11-18T15:11:32;2.83;;;1.00;;
62616;SDS011;62539;51.190;6.808;2022-11-18T15:13:59;3.90;;;0.90;;
62616;SDS011;62539;51.190;6.808;2022-11-18T15:16:25;3.10;;;0.95;;
62616;SDS011;62539;51.190;6.808;2022-11-18T15:18:54;2.58;;;1.00;;
62616;SDS011;62539;51.190;6.808;2022-11-18T15:21:23;6.60;;;1.08;;
62616;SDS011;62539;51.190;6.808;2022-11-18T15:23:49;1.67;;;0.98;;
62616;SDS011;62539;51.190;6.808;2022-11-18T15:26:25;3.20;;;1.15;;
62616;SDS011;62539;51.190;6.808;2022-11-18T15:29:01;3.08;;;1.00;;
62616;SDS011;62539;51.190;6.808;2022-11-18T15:31:27;5.68;;;1.23;;
62616;SDS011;62539;51.190;6.808;2022-11-18T15:33:52;10.50;;;1.08;;
62616;SDS011;62539;51.190;6.808;2022-11-18T15:36:19;2.35;;;1.10;;
62616;SDS011;62539;51.190;6.808;2022-11-18T15:38:48;3.10;;;1.08;;
62616;SDS011;62539;51.190;6.808;2022-11-18T15:41:15;5.47;;;0.98;;
62616;SDS011;62539;51.190;6.808;2022-11-18T15:43:46;7.05;;;1.02;;
62616;SDS011;62539;51.190;6.808;2022-11-18T15:46:13;6.80;;;1.15;;
62616;SDS011;62539;51.190;6.808;2022-11-18T15:48:40;5.20;;;1.10;;
62616;SDS011;62539;51.190;6.808;2022-11-18T15:51:06;7.03;;;1.30;;
62616;SDS011;62539;51.190;6.808;2022-11-18T15:53:32;2.58;;;1.05;;
62616;SDS011;62539;51.190;6.808;2022-11-18T15:56:14;3.78;;;1.20;;
62616;SDS011;62539;51.190;6.808;2022-11-18T15:58:40;2.88;;;1.13;;
62616;SDS011;62539;51.190;6.808;2022-11-18T16:01:06;2.92;;;1.08;;
62616;SDS011;62539;51.190;6.808;2022-11-18T16:03:32;4.00;;;0.80;;
62616;SDS011;62539;51.190;6.808;2022-11-18T16:05:58;4.05;;;1.30;;
62616;SDS011;62539;51.190;6.808;2022-11-18T16:08:23;2.28;;;1.08;;
62616;SDS011;62539;51.190;6.808;2022-11-18T16:10:53;3.30;;;1.00;;
62616;SDS011;62539;51.190;6.808;2022-11-18T16:13:39;2.37;;;1.27;;
62616;SDS011;62539;51.190;6.808;2022-11-18T16:16:04;2.42;;;1.00;;
62616;SDS011;62539;51.190;6.808;2022-11-18T16:18:30;3.03;;;1.00;;
62616;SDS011;62539;51.190;6.808;2022-11-18T16:20:56;4.47;;;1.10;;
62616;SDS011;62539;51.190;6.808;2022-11-18T16:23:24;3.33;;;0.98;;
62616;SDS011;62539;51.190;6.808;2022-11-18T16:25:54;2.58;;;0.90;;
62616;SDS011;62539;51.190;6.808;2022-11-18T16:28:19;2.08;;;0.98;;
62616;SDS011;62539;51.190;6.808;2022-11-18T16:30:48;2.03;;;1.10;;
62616;SDS011;62539;51.190;6.808;2022-11-18T16:33:33;1.88;;;1.10;;
62616;SDS011;62539;51.190;6.808;2022-11-18T16:35:59;2.78;;;0.80;;
62616;SDS011;62539;51.190;6.808;2022-11-18T16:38:25;2.70;;;0.90;;
62616;SDS011;62539;51.190;6.808;2022-11-18T16:40:54;1.48;;;1.05;;
62616;SDS011;62539;51.190;6.808;2022-11-18T16:43:20;4.32;;;1.15;;
62616;SDS011;62539;51.190;6.808;2022-11-18T16:45:52;2.33;;;1.10;;
62616;SDS011;62539;51.190;6.808;2022-11-18T16:48:19;2.20;;;0.82;;
62616;SDS011;62539;51.190;6.808;2022-11-18T16:50:50;2.22;;;1.13;;
62616;SDS011;62539;51.190;6.808;2022-11-18T16:53:42;4.35;;;1.05;;
62616;SDS011;62539;51.190;6.808;2022-11-18T16:56:08;1.83;;;0.80;;
62616;SDS011;62539;51.190;6.808;2022-11-18T16:58:34;2.22;;;1.00;;
62616;SDS011;62539;51.190;6.808;2022-11-18T17:01:07;2.28;;;1.00;;
62616;SDS011;62539;51.190;6.808;2022-11-18T17:03:34;2.28;;;0.95;;
62616;SDS011;62539;51.190;6.808;2022-11-18T17:06:00;1.92;;;0.85;;
62616;SDS011;62539;51.190;6.808;2022-11-18T17:08:25;2.75;;;1.10;;
62616;SDS011;62539;51.190;6.808;2022-11-18T17:10:50;2.03;;;1.20;;
62616;SDS011;62539;51.190;6.808;2022-11-18T17:13:16;2.70;;;1.10;;
62616;SDS011;62539;51.190;6.808;2022-11-18T17:15:41;6.22;;;0.98;;
62616;SDS011;62539;51.190;6.808;2022-11-18T17:18:06;2.05;;;1.00;;
62616;SDS011;62539;51.190;6.808;2022-11-18T17:20:33;1.95;;;1.10;;
62616;SDS011;62539;51.190;6.808;2022-11-18T17:22:59;0.88;;;0.77;;
62616;SDS011;62539;51.190;6.808;2022-11-18T17:25:25;2.08;;;1.15;;
62616;SDS011;62539;51.190;6.808;2022-11-18T17:27:50;1.90;;;1.08;;